Impacts TAF Board
For situational awareness. Not to be used for flight planning purposes.
IDs:

KCOE - Coeur DAlene Arpt, ID, US

Issued at 1122 UTC 07 Jul 2020
Updated at 1159 UTC 07 Jul 2020
Potential Impact None Slight Moderate High
Time1156Z 07/12Z 07/13Z 07/14Z 07/15Z 07/16Z 07/17Z 07/18Z 07/19Z 07/20Z 07/21Z 07/22Z 07/23Z 08/00Z>>
Type OBS PRVL PRVL PRVL PRVL PRVL PRVL PRVL PRVL PRVL PRVL PRVL PRVL PRVL
VIS 10 >6 >6 >6 >6 >6 >6 >6 >6 >6 >6 >6 >6 >6
CIG 100 45 45 45 60 60 60 60 70 70 70 70 70 70
Cover BKN OVC OVC OVC BKN BKN BKN BKN BKN BKN BKN BKN BKN BKN
FltCat VFR VFR VFR VFR VFR VFR VFR VFR VFR VFR VFR VFR VFR VFR
WX -- RA RA RA -- -- -- -- -- -- -- -- -- --
WDir 290 160 160 160 190 190 190 190 210 210 210 210 210 210
WSpd 9 10 10 10 7 7 7 7 12 12 12 12 12 12
WGst -- -- -- -- -- -- -- -- 19 19 19 19 19 19
Raw TAF
KCOE 071122Z 0712/0812 16010KT P6SM RA FEW035 BKN045 OVC070
  FM071500 19007KT P6SM SCT020 BKN060
  FM071900 21012G19KT P6SM SCT040 BKN070
  FM080300 20009KT P6SM SCT090


Raw METAR
KCOE 071156Z AUTO 29009KT 10SM BKN100 13/12 A2989 RMK AO2 RAE53 SLP123 P0005 60027 70027 T01280117 10178 20128 50009
KCOE 071056Z AUTO 16010KT 10SM RA FEW034 BKN047 OVC070 13/12 A2994 RMK AO2 SLP141 P0011 T01330117
KCOE 070956Z AUTO 00000KT 9SM RA BKN048 OVC055 14/12 A2990 RMK AO2 SLP125 P0011 T01440122
KCOE 070856Z AUTO 27008KT 10SM -RA SCT060 OVC090 16/11 A2986 RMK AO2 LTG DSNT E TSB0758E13RAB12 SLP111 P0000 60000 T01560106 53012

METAR Board
Radar Display
Forecast Discussion
For situational awareness. Not to be used for flight planning purposes.